sensor_id;sensor_type;location;lat;lon;timestamp;temperature;humidity
42715;DHT22;28351;51.480;5.706;2023-02-28T00:01:12;-1.60;99.90
42715;DHT22;28351;51.480;5.706;2023-02-28T00:03:38;-1.60;99.90
42715;DHT22;28351;51.480;5.706;2023-02-28T00:06:05;-1.60;99.90
42715;DHT22;28351;51.480;5.706;2023-02-28T00:08:31;-1.70;99.90
42715;DHT22;28351;51.480;5.706;2023-02-28T00:11:04;-1.70;99.90
42715;DHT22;28351;51.480;5.706;2023-02-28T00:13:31;-1.70;99.90
42715;DHT22;28351;51.480;5.706;2023-02-28T00:16:02;-1.70;99.90
42715;DHT22;28351;51.480;5.706;2023-02-28T00:18:27;-1.70;99.90
42715;DHT22;28351;51.480;5.706;2023-02-28T00:20:53;-1.70;99.90
42715;DHT22;28351;51.480;5.706;2023-02-28T00:23:19;-1.70;99.90
42715;DHT22;28351;51.480;5.706;2023-02-28T00:25:44;-1.70;99.90
42715;DHT22;28351;51.480;5.706;2023-02-28T00:28:10;-1.80;99.90
42715;DHT22;28351;51.480;5.706;2023-02-28T00:30:36;-1.80;99.90
42715;DHT22;28351;51.480;5.706;2023-02-28T00:33:01;-1.80;99.90
42715;DHT22;28351;51.480;5.706;2023-02-28T00:35:27;-1.80;99.90
42715;DHT22;28351;51.480;5.706;2023-02-28T00:37:52;-1.80;99.90
42715;DHT22;28351;51.480;5.706;2023-02-28T00:40:18;-1.80;99.90
42715;DHT22;28351;51.480;5.706;2023-02-28T00:42:44;-1.80;99.90
42715;DHT22;28351;51.480;5.706;2023-02-28T00:45:09;-1.80;99.90
42715;DHT22;28351;51.480;5.706;2023-02-28T00:47:35;-1.90;99.90
42715;DHT22;28351;51.480;5.706;2023-02-28T00:50:00;-1.90;99.90
42715;DHT22;28351;51.480;5.706;2023-02-28T00:52:26;-1.90;99.90
42715;DHT22;28351;51.480;5.706;2023-02-28T00:54:52;-1.90;99.90
42715;DHT22;28351;51.480;5.706;2023-02-28T00:57:17;-1.90;99.90
42715;DHT22;28351;51.480;5.706;2023-02-28T00:59:43;-1.90;99.90
42715;DHT22;28351;51.480;5.706;2023-02-28T01:02:09;-1.90;99.90
42715;DHT22;28351;51.480;5.706;2023-02-28T01:04:35;-1.90;99.90
42715;DHT22;28351;51.480;5.706;2023-02-28T01:07:04;-2.00;99.90
42715;DHT22;28351;51.480;5.706;2023-02-28T01:09:32;-2.00;99.90
42715;DHT22;28351;51.480;5.706;2023-02-28T01:11:58;-2.00;99.90
42715;DHT22;28351;51.480;5.706;2023-02-28T01:14:23;-2.00;99.90
42715;DHT22;28351;51.480;5.706;2023-02-28T01:16:49;-2.00;99.90
42715;DHT22;28351;51.480;5.706;2023-02-28T01:19:25;-2.00;99.90
42715;DHT22;28351;51.480;5.706;2023-02-28T01:21:50;-2.10;99.90
42715;DHT22;28351;51.480;5.706;2023-02-28T01:24:16;-2.10;99.90
42715;DHT22;28351;51.480;5.706;2023-02-28T01:26:41;-2.10;99.90
42715;DHT22;28351;51.480;5.706;2023-02-28T01:29:07;-2.20;99.90
42715;DHT22;28351;51.480;5.706;2023-02-28T01:31:38;-2.20;99.90
42715;DHT22;28351;51.480;5.706;2023-02-28T01:34:04;-2.20;99.90
42715;DHT22;28351;51.480;5.706;2023-02-28T01:36:30;-2.30;99.90
42715;DHT22;28351;51.480;5.706;2023-02-28T01:38:56;-2.30;99.90
42715;DHT22;28351;51.480;5.706;2023-02-28T01:41:31;-2.30;99.90
42715;DHT22;28351;51.480;5.706;2023-02-28T01:44:06;-2.30;99.90
42715;DHT22;28351;51.480;5.706;2023-02-28T01:46:34;-2.20;99.90
42715;DHT22;28351;51.480;5.706;2023-02-28T01:49:08;-2.20;99.90
42715;DHT22;28351;51.480;5.706;2023-02-28T01:51:41;-2.20;99.90
42715;DHT22;28351;51.480;5.706;2023-02-28T01:54:13;-2.20;99.90
42715;DHT22;28351;51.480;5.706;2023-02-28T01:59:56;-2.20;99.90
42715;DHT22;28351;51.480;5.706;2023-02-28T02:02:24;-2.20;99.90
42715;DHT22;28351;51.480;5.706;2023-02-28T02:05:04;-2.20;99.90
42715;DHT22;28351;51.480;5.706;2023-02-28T02:07:35;-2.20;99.90
42715;DHT22;28351;51.480;5.706;2023-02-28T02:10:06;-2.20;99.90
42715;DHT22;28351;51.480;5.706;2023-02-28T02:18:49;-2.10;99.90
42715;DHT22;28351;51.480;5.706;2023-02-28T02:36:22;-2.30;99.90
42715;DHT22;28351;51.480;5.706;2023-02-28T02:39:12;-2.30;99.90
42715;DHT22;28351;51.480;5.706;2023-02-28T02:41:52;-2.30;99.90
42715;DHT22;28351;51.480;5.706;2023-02-28T02:44:26;-2.30;99.90
42715;DHT22;28351;51.480;5.706;2023-02-28T02:47:08;-2.20;99.90
42715;DHT22;28351;51.480;5.706;2023-02-28T02:49:37;-2.20;99.90
42715;DHT22;28351;51.480;5.706;2023-02-28T02:52:14;-2.20;99.90
42715;DHT22;28351;51.480;5.706;2023-02-28T02:54:53;-2.30;99.90
42715;DHT22;28351;51.480;5.706;2023-02-28T02:57:47;-2.30;99.90
42715;DHT22;28351;51.480;5.706;2023-02-28T03:00:16;-2.30;99.90
42715;DHT22;28351;51.480;5.706;2023-02-28T03:02:44;-2.40;99.90
42715;DHT22;28351;51.480;5.706;2023-02-28T03:05:20;-2.40;99.90
42715;DHT22;28351;51.480;5.706;2023-02-28T03:07:46;-2.40;99.90
42715;DHT22;28351;51.480;5.706;2023-02-28T03:10:44;-2.40;99.90
42715;DHT22;28351;51.480;5.706;2023-02-28T03:13:18;-2.30;99.90
42715;DHT22;28351;51.480;5.706;2023-02-28T03:22:15;-2.20;99.90
42715;DHT22;28351;51.480;5.706;2023-02-28T03:33:23;-1.80;99.90
42715;DHT22;28351;51.480;5.706;2023-02-28T03:35:58;-1.70;99.90
42715;DHT22;28351;51.480;5.706;2023-02-28T03:42:23;-1.50;99.90
42715;DHT22;28351;51.480;5.706;2023-02-28T03:46:56;-1.30;99.90
42715;DHT22;28351;51.480;5.706;2023-02-28T03:49:26;-1.20;99.90
42715;DHT22;28351;51.480;5.706;2023-02-28T03:51:53;-1.20;99.90
42715;DHT22;28351;51.480;5.706;2023-02-28T03:54:25;-1.10;99.90
42715;DHT22;28351;51.480;5.706;2023-02-28T03:56:59;-1.10;99.90
42715;DHT22;28351;51.480;5.706;2023-02-28T03:59:30;-1.10;99.90
42715;DHT22;28351;51.480;5.706;2023-02-28T04:01:59;-1.00;99.90
42715;DHT22;28351;51.480;5.706;2023-02-28T04:04:25;-1.00;99.90
42715;DHT22;28351;51.480;5.706;2023-02-28T04:06:51;-1.00;99.90
42715;DHT22;28351;51.480;5.706;2023-02-28T04:09:17;-0.90;99.90
42715;DHT22;28351;51.480;5.706;2023-02-28T04:11:45;-0.90;99.90
42715;DHT22;28351;51.480;5.706;2023-02-28T04:14:12;-0.70;99.90
42715;DHT22;28351;51.480;5.706;2023-02-28T04:16:40;-0.60;99.90
42715;DHT22;28351;51.480;5.706;2023-02-28T04:19:07;-0.50;99.90
42715;DHT22;28351;51.480;5.706;2023-02-28T04:21:38;-0.50;99.90
42715;DHT22;28351;51.480;5.706;2023-02-28T04:24:05;-0.50;99.90
42715;DHT22;28351;51.480;5.706;2023-02-28T04:26:35;-0.40;99.90
42715;DHT22;28351;51.480;5.706;2023-02-28T04:29:03;-0.40;99.90
42715;DHT22;28351;51.480;5.706;2023-02-28T04:31:28;-0.30;99.90
42715;DHT22;28351;51.480;5.706;2023-02-28T04:33:54;-0.30;99.90
42715;DHT22;28351;51.480;5.706;2023-02-28T04:36:22;-0.30;99.90
42715;DHT22;28351;51.480;5.706;2023-02-28T04:38:49;-0.30;99.90
42715;DHT22;28351;51.480;5.706;2023-02-28T04:41:15;-0.30;99.90
42715;DHT22;28351;51.480;5.706;2023-02-28T04:43:41;-0.30;99.90
42715;DHT22;28351;51.480;5.706;2023-02-28T04:46:06;-0.30;99.90
42715;DHT22;28351;51.480;5.706;2023-02-28T04:48:35;-0.30;99.90
42715;DHT22;28351;51.480;5.706;2023-02-28T04:51:04;-0.30;99.90
42715;DHT22;28351;51.480;5.706;2023-02-28T04:53:31;-0.40;99.90
42715;DHT22;28351;51.480;5.706;2023-02-28T04:55:59;-0.40;99.90
42715;DHT22;28351;51.480;5.706;2023-02-28T04:58:26;-0.50;99.90
42715;DHT22;28351;51.480;5.706;2023-02-28T05:00:52;-0.50;99.90
42715;DHT22;28351;51.480;5.706;2023-02-28T05:03:19;-0.50;99.90
42715;DHT22;28351;51.480;5.706;2023-02-28T05:05:46;-0.50;99.90
42715;DHT22;28351;51.480;5.706;2023-02-28T05:08:11;-0.60;99.90
42715;DHT22;28351;51.480;5.706;2023-02-28T05:10:37;-0.70;99.90
42715;DHT22;28351;51.480;5.706;2023-02-28T05:13:03;-0.60;99.90
42715;DHT22;28351;51.480;5.706;2023-02-28T05:15:31;-0.60;99.90
42715;DHT22;28351;51.480;5.706;2023-02-28T05:18:00;-0.60;99.90
42715;DHT22;28351;51.480;5.706;2023-02-28T05:20:25;-0.60;99.90
42715;DHT22;28351;51.480;5.706;2023-02-28T05:22:51;-0.60;99.90
42715;DHT22;28351;51.480;5.706;2023-02-28T05:25:20;-0.50;99.90
42715;DHT22;28351;51.480;5.706;2023-02-28T05:27:47;-0.50;99.90
42715;DHT22;28351;51.480;5.706;2023-02-28T05:30:13;-0.50;99.90
42715;DHT22;28351;51.480;5.706;2023-02-28T05:32:39;-0.50;99.90
42715;DHT22;28351;51.480;5.706;2023-02-28T05:35:09;-0.50;99.90
42715;DHT22;28351;51.480;5.706;2023-02-28T05:37:35;-0.50;99.90
42715;DHT22;28351;51.480;5.706;2023-02-28T05:40:01;-0.50;99.90
42715;DHT22;28351;51.480;5.706;2023-02-28T05:42:27;-0.50;99.90
42715;DHT22;28351;51.480;5.706;2023-02-28T05:44:53;-0.50;99.90
42715;DHT22;28351;51.480;5.706;2023-02-28T05:47:19;-0.60;99.90
42715;DHT22;28351;51.480;5.706;2023-02-28T05:49:44;-0.60;99.90
42715;DHT22;28351;51.480;5.706;2023-02-28T05:52:10;-0.60;99.90
42715;DHT22;28351;51.480;5.706;2023-02-28T05:54:36;-0.70;99.90
42715;DHT22;28351;51.480;5.706;2023-02-28T05:57:01;-0.70;99.90
42715;DHT22;28351;51.480;5.706;2023-02-28T05:59:27;-0.80;99.90
42715;DHT22;28351;51.480;5.706;2023-02-28T06:01:52;-0.80;99.90
42715;DHT22;28351;51.480;5.706;2023-02-28T06:04:19;-0.80;99.90
42715;DHT22;28351;51.480;5.706;2023-02-28T06:06:46;-0.80;99.90
42715;DHT22;28351;51.480;5.706;2023-02-28T06:09:12;-0.90;99.90
42715;DHT22;28351;51.480;5.706;2023-02-28T06:11:38;-0.90;99.90
42715;DHT22;28351;51.480;5.706;2023-02-28T06:14:07;-0.80;99.90
42715;DHT22;28351;51.480;5.706;2023-02-28T06:16:34;-0.80;99.90
42715;DHT22;28351;51.480;5.706;2023-02-28T06:19:03;-0.70;99.90
42715;DHT22;28351;51.480;5.706;2023-02-28T06:21:29;-0.80;99.90
42715;DHT22;28351;51.480;5.706;2023-02-28T06:23:56;-0.80;99.90
42715;DHT22;28351;51.480;5.706;2023-02-28T06:26:23;-0.80;99.90
42715;DHT22;28351;51.480;5.706;2023-02-28T06:28:49;-0.90;99.90
42715;DHT22;28351;51.480;5.706;2023-02-28T06:31:16;-0.90;99.90
42715;DHT22;28351;51.480;5.706;2023-02-28T06:33:43;-0.90;99.90
42715;DHT22;28351;51.480;5.706;2023-02-28T06:36:11;-0.90;99.90
42715;DHT22;28351;51.480;5.706;2023-02-28T06:38:37;-1.00;99.90
42715;DHT22;28351;51.480;5.706;2023-02-28T06:41:04;-1.10;99.90
42715;DHT22;28351;51.480;5.706;2023-02-28T06:43:34;-1.20;99.90
42715;DHT22;28351;51.480;5.706;2023-02-28T06:46:00;-1.20;99.90
42715;DHT22;28351;51.480;5.706;2023-02-28T06:48:29;-1.30;99.90
42715;DHT22;28351;51.480;5.706;2023-02-28T06:51:09;-1.30;99.90
42715;DHT22;28351;51.480;5.706;2023-02-28T06:53:44;-1.30;99.90
42715;DHT22;28351;51.480;5.706;2023-02-28T06:56:11;-1.30;99.90
42715;DHT22;28351;51.480;5.706;2023-02-28T06:58:37;-1.20;99.90
42715;DHT22;28351;51.480;5.706;2023-02-28T07:01:07;-1.20;99.90
42715;DHT22;28351;51.480;5.706;2023-02-28T07:03:47;-1.30;99.90
42715;DHT22;28351;51.480;5.706;2023-02-28T07:09:39;-1.30;99.90
42715;DHT22;28351;51.480;5.706;2023-02-28T07:12:23;-1.40;99.90
42715;DHT22;28351;51.480;5.706;2023-02-28T07:14:49;-1.40;99.90
42715;DHT22;28351;51.480;5.706;2023-02-28T07:17:15;-1.40;99.90
42715;DHT22;28351;51.480;5.706;2023-02-28T07:27:33;-1.30;99.90
42715;DHT22;28351;51.480;5.706;2023-02-28T07:30:02;-1.20;99.90
42715;DHT22;28351;51.480;5.706;2023-02-28T07:32:29;-1.10;99.90
42715;DHT22;28351;51.480;5.706;2023-02-28T07:34:55;-0.90;99.90
42715;DHT22;28351;51.480;5.706;2023-02-28T07:37:20;-0.80;99.90
42715;DHT22;28351;51.480;5.706;2023-02-28T07:39:46;-0.70;99.90
42715;DHT22;28351;51.480;5.706;2023-02-28T07:42:12;-0.60;99.90
42715;DHT22;28351;51.480;5.706;2023-02-28T07:44:39;-0.50;99.90
42715;DHT22;28351;51.480;5.706;2023-02-28T07:47:10;-0.50;99.90
42715;DHT22;28351;51.480;5.706;2023-02-28T07:49:39;-0.40;99.90
42715;DHT22;28351;51.480;5.706;2023-02-28T07:52:05;-0.40;99.90
42715;DHT22;28351;51.480;5.706;2023-02-28T07:54:32;-0.30;99.90
42715;DHT22;28351;51.480;5.706;2023-02-28T07:56:57;-0.20;99.90
42715;DHT22;28351;51.480;5.706;2023-02-28T07:59:23;-0.10;99.90
42715;DHT22;28351;51.480;5.706;2023-02-28T08:01:49;-0.10;99.90
42715;DHT22;28351;51.480;5.706;2023-02-28T08:04:17;0.00;99.90
42715;DHT22;28351;51.480;5.706;2023-02-28T08:06:42;0.10;99.90
42715;DHT22;28351;51.480;5.706;2023-02-28T08:09:08;0.20;99.90
42715;DHT22;28351;51.480;5.706;2023-02-28T08:11:34;0.20;99.90
42715;DHT22;28351;51.480;5.706;2023-02-28T08:13:59;0.40;99.90
42715;DHT22;28351;51.480;5.706;2023-02-28T08:16:25;0.40;99.90
42715;DHT22;28351;51.480;5.706;2023-02-28T08:26:02;0.60;99.90
42715;DHT22;28351;51.480;5.706;2023-02-28T08:29:08;0.80;99.90
42715;DHT22;28351;51.480;5.706;2023-02-28T08:34:28;0.80;99.90
42715;DHT22;28351;51.480;5.706;2023-02-28T08:36:57;0.90;99.90
42715;DHT22;28351;51.480;5.706;2023-02-28T08:39:28;1.00;99.90
42715;DHT22;28351;51.480;5.706;2023-02-28T08:41:54;1.10;99.90
42715;DHT22;28351;51.480;5.706;2023-02-28T08:44:19;1.10;99.90
42715;DHT22;28351;51.480;5.706;2023-02-28T08:46:45;1.20;99.90
42715;DHT22;28351;51.480;5.706;2023-02-28T08:49:11;1.30;99.90
42715;DHT22;28351;51.480;5.706;2023-02-28T08:51:43;1.30;99.90
42715;DHT22;28351;51.480;5.706;2023-02-28T08:54:09;1.40;99.90
42715;DHT22;28351;51.480;5.706;2023-02-28T08:56:37;1.50;99.90
42715;DHT22;28351;51.480;5.706;2023-02-28T08:59:05;1.60;99.90
42715;DHT22;28351;51.480;5.706;2023-02-28T09:01:37;1.60;99.90
42715;DHT22;28351;51.480;5.706;2023-02-28T09:04:03;1.70;99.90
42715;DHT22;28351;51.480;5.706;2023-02-28T09:06:28;1.70;99.90
42715;DHT22;28351;51.480;5.706;2023-02-28T09:08:57;1.70;99.90
42715;DHT22;28351;51.480;5.706;2023-02-28T09:11:27;1.80;99.90
42715;DHT22;28351;51.480;5.706;2023-02-28T09:13:53;1.80;99.90
42715;DHT22;28351;51.480;5.706;2023-02-28T09:16:48;1.90;99.90
42715;DHT22;28351;51.480;5.706;2023-02-28T09:25:09;2.30;99.90
42715;DHT22;28351;51.480;5.706;2023-02-28T09:27:54;2.40;99.90
42715;DHT22;28351;51.480;5.706;2023-02-28T09:34:01;2.60;98.40
42715;DHT22;28351;51.480;5.706;2023-02-28T09:36:27;2.70;98.00
42715;DHT22;28351;51.480;5.706;2023-02-28T09:38:53;2.70;97.20
42715;DHT22;28351;51.480;5.706;2023-02-28T09:41:25;2.90;97.10
42715;DHT22;28351;51.480;5.706;2023-02-28T09:43:55;2.90;97.30
42715;DHT22;28351;51.480;5.706;2023-02-28T09:46:35;2.90;97.50
42715;DHT22;28351;51.480;5.706;2023-02-28T09:49:12;2.90;96.50
42715;DHT22;28351;51.480;5.706;2023-02-28T09:51:50;3.00;96.50
42715;DHT22;28351;51.480;5.706;2023-02-28T09:54:28;3.10;96.10
42715;DHT22;28351;51.480;5.706;2023-02-28T10:06:21;3.30;95.30
42715;DHT22;28351;51.480;5.706;2023-02-28T10:09:07;3.50;95.50
42715;DHT22;28351;51.480;5.706;2023-02-28T10:11:36;3.70;95.20
42715;DHT22;28351;51.480;5.706;2023-02-28T10:14:28;3.70;94.80
42715;DHT22;28351;51.480;5.706;2023-02-28T10:17:12;3.70;94.10
42715;DHT22;28351;51.480;5.706;2023-02-28T10:20:01;3.80;94.70
42715;DHT22;28351;51.480;5.706;2023-02-28T10:25:58;4.00;93.90
42715;DHT22;28351;51.480;5.706;2023-02-28T10:28:25;4.10;94.50
42715;DHT22;28351;51.480;5.706;2023-02-28T10:30:53;4.20;94.00
42715;DHT22;28351;51.480;5.706;2023-02-28T10:33:30;4.20;94.00
42715;DHT22;28351;51.480;5.706;2023-02-28T10:35:57;4.30;94.20
42715;DHT22;28351;51.480;5.706;2023-02-28T10:38:29;4.50;93.90
42715;DHT22;28351;51.480;5.706;2023-02-28T10:41:32;4.60;92.80
42715;DHT22;28351;51.480;5.706;2023-02-28T10:44:22;4.60;92.90
42715;DHT22;28351;51.480;5.706;2023-02-28T10:46:49;4.80;92.90
42715;DHT22;28351;51.480;5.706;2023-02-28T10:49:20;4.90;92.60
42715;DHT22;28351;51.480;5.706;2023-02-28T10:51:49;4.80;92.60
42715;DHT22;28351;51.480;5.706;2023-02-28T10:54:19;4.80;92.80
42715;DHT22;28351;51.480;5.706;2023-02-28T10:56:45;4.80;92.50
42715;DHT22;28351;51.480;5.706;2023-02-28T10:59:30;5.00;92.50
42715;DHT22;28351;51.480;5.706;2023-02-28T11:01:56;5.10;92.30
42715;DHT22;28351;51.480;5.706;2023-02-28T11:11:52;5.30;92.40
42715;DHT22;28351;51.480;5.706;2023-02-28T11:14:29;5.50;92.30
42715;DHT22;28351;51.480;5.706;2023-02-28T11:17:00;5.70;92.10
42715;DHT22;28351;51.480;5.706;2023-02-28T11:19:44;5.80;91.90
42715;DHT22;28351;51.480;5.706;2023-02-28T11:22:11;5.90;91.30
42715;DHT22;28351;51.480;5.706;2023-02-28T11:24:44;5.90;91.60
42715;DHT22;28351;51.480;5.706;2023-02-28T11:29:55;6.30;91.60
42715;DHT22;28351;51.480;5.706;2023-02-28T11:32:25;6.50;91.40
42715;DHT22;28351;51.480;5.706;2023-02-28T11:37:37;7.00;91.10
42715;DHT22;28351;51.480;5.706;2023-02-28T11:40:12;7.70;90.70
42715;DHT22;28351;51.480;5.706;2023-02-28T11:48:51;9.70;89.20
42715;DHT22;28351;51.480;5.706;2023-02-28T11:51:27;10.80;87.90
42715;DHT22;28351;51.480;5.706;2023-02-28T11:56:39;11.80;84.50
42715;DHT22;28351;51.480;5.706;2023-02-28T12:07:34;13.40;81.00
42715;DHT22;28351;51.480;5.706;2023-02-28T12:18:30;14.90;77.50
42715;DHT22;28351;51.480;5.706;2023-02-28T12:26:57;15.20;76.60
42715;DHT22;28351;51.480;5.706;2023-02-28T12:29:34;15.60;76.40
42715;DHT22;28351;51.480;5.706;2023-02-28T12:32:19;15.90;75.70
42715;DHT22;28351;51.480;5.706;2023-02-28T12:34:54;15.80;76.00
42715;DHT22;28351;51.480;5.706;2023-02-28T12:37:31;15.20;75.30
42715;DHT22;28351;51.480;5.706;2023-02-28T12:40:05;15.10;75.50
42715;DHT22;28351;51.480;5.706;2023-02-28T12:42:59;14.30;76.80
42715;DHT22;28351;51.480;5.706;2023-02-28T12:46:00;14.10;76.40
42715;DHT22;28351;51.480;5.706;2023-02-28T12:48:33;14.70;76.40
42715;DHT22;28351;51.480;5.706;2023-02-28T12:51:03;16.30;75.90
42715;DHT22;28351;51.480;5.706;2023-02-28T12:53:52;16.40;74.30
42715;DHT22;28351;51.480;5.706;2023-02-28T12:59:39;15.80;74.40
42715;DHT22;28351;51.480;5.706;2023-02-28T13:02:33;16.30;73.50
42715;DHT22;28351;51.480;5.706;2023-02-28T13:05:28;16.00;73.70
42715;DHT22;28351;51.480;5.706;2023-02-28T13:10:48;16.00;73.30
42715;DHT22;28351;51.480;5.706;2023-02-28T13:13:22;16.20;73.60
42715;DHT22;28351;51.480;5.706;2023-02-28T13:16:09;16.10;75.40
42715;DHT22;28351;51.480;5.706;2023-02-28T13:18:48;16.00;73.10
42715;DHT22;28351;51.480;5.706;2023-02-28T13:21:26;15.30;71.70
42715;DHT22;28351;51.480;5.706;2023-02-28T13:39:55;15.50;73.70
42715;DHT22;28351;51.480;5.706;2023-02-28T13:42:36;16.20;73.30
42715;DHT22;28351;51.480;5.706;2023-02-28T13:47:33;16.50;72.40
42715;DHT22;28351;51.480;5.706;2023-02-28T13:58:53;16.20;73.40
42715;DHT22;28351;51.480;5.706;2023-02-28T14:01:53;15.90;73.00
42715;DHT22;28351;51.480;5.706;2023-02-28T14:07:07;16.30;73.00
42715;DHT22;28351;51.480;5.706;2023-02-28T14:09:40;16.00;73.40
42715;DHT22;28351;51.480;5.706;2023-02-28T14:17:55;15.40;73.00
42715;DHT22;28351;51.480;5.706;2023-02-28T14:20:23;15.60;72.40
42715;DHT22;28351;51.480;5.706;2023-02-28T14:25:31;15.90;72.50
42715;DHT22;28351;51.480;5.706;2023-02-28T14:28:04;16.20;72.80
42715;DHT22;28351;51.480;5.706;2023-02-28T14:36:14;15.10;72.90
42715;DHT22;28351;51.480;5.706;2023-02-28T14:38:57;15.20;73.30
42715;DHT22;28351;51.480;5.706;2023-02-28T14:41:24;14.40;74.50
42715;DHT22;28351;51.480;5.706;2023-02-28T14:44:18;13.80;73.60
42715;DHT22;28351;51.480;5.706;2023-02-28T14:46:45;13.60;74.60
42715;DHT22;28351;51.480;5.706;2023-02-28T14:49:27;13.60;75.00
42715;DHT22;28351;51.480;5.706;2023-02-28T14:52:12;13.70;75.00
42715;DHT22;28351;51.480;5.706;2023-02-28T14:54:40;13.30;74.90
42715;DHT22;28351;51.480;5.706;2023-02-28T14:57:12;12.80;75.30
42715;DHT22;28351;51.480;5.706;2023-02-28T14:59:45;11.10;76.30
42715;DHT22;28351;51.480;5.706;2023-02-28T15:02:18;9.80;78.40
42715;DHT22;28351;51.480;5.706;2023-02-28T15:04:59;9.00;80.60
42715;DHT22;28351;51.480;5.706;2023-02-28T15:07:25;8.10;83.40
42715;DHT22;28351;51.480;5.706;2023-02-28T15:12:51;7.60;85.30
42715;DHT22;28351;51.480;5.706;2023-02-28T15:15:19;7.40;84.40
42715;DHT22;28351;51.480;5.706;2023-02-28T15:17:51;7.30;85.50
42715;DHT22;28351;51.480;5.706;2023-02-28T15:20:19;7.10;85.30
42715;DHT22;28351;51.480;5.706;2023-02-28T15:22:49;6.90;85.30
42715;DHT22;28351;51.480;5.706;2023-02-28T15:25:20;6.90;86.60
42715;DHT22;28351;51.480;5.706;2023-02-28T15:27:52;6.90;87.00
42715;DHT22;28351;51.480;5.706;2023-02-28T15:30:20;6.80;86.40
42715;DHT22;28351;51.480;5.706;2023-02-28T15:35:38;7.80;86.00
42715;DHT22;28351;51.480;5.706;2023-02-28T15:38:25;9.50;85.20
42715;DHT22;28351;51.480;5.706;2023-02-28T15:40:52;10.60;80.70
42715;DHT22;28351;51.480;5.706;2023-02-28T15:43:35;10.60;79.90
42715;DHT22;28351;51.480;5.706;2023-02-28T15:48:31;8.40;83.60
42715;DHT22;28351;51.480;5.706;2023-02-28T15:53:51;7.20;86.90
42715;DHT22;28351;51.480;5.706;2023-02-28T15:56:26;6.90;86.80
42715;DHT22;28351;51.480;5.706;2023-02-28T15:58:59;6.60;88.50
42715;DHT22;28351;51.480;5.706;2023-02-28T16:01:29;6.40;89.10
42715;DHT22;28351;51.480;5.706;2023-02-28T16:03:59;6.30;89.50
42715;DHT22;28351;51.480;5.706;2023-02-28T16:08:59;6.10;90.20
42715;DHT22;28351;51.480;5.706;2023-02-28T16:11:25;6.10;90.40
42715;DHT22;28351;51.480;5.706;2023-02-28T16:13:52;6.00;89.70
42715;DHT22;28351;51.480;5.706;2023-02-28T16:16:23;5.90;90.10
42715;DHT22;28351;51.480;5.706;2023-02-28T16:18:50;5.80;90.50
42715;DHT22;28351;51.480;5.706;2023-02-28T16:21:16;5.70;90.60
42715;DHT22;28351;51.480;5.706;2023-02-28T16:23:47;5.70;91.10
42715;DHT22;28351;51.480;5.706;2023-02-28T16:26:21;5.70;91.20
42715;DHT22;28351;51.480;5.706;2023-02-28T16:28:47;5.60;90.70
42715;DHT22;28351;51.480;5.706;2023-02-28T16:31:13;5.60;91.10
42715;DHT22;28351;51.480;5.706;2023-02-28T16:33:43;5.50;91.00
42715;DHT22;28351;51.480;5.706;2023-02-28T16:36:23;5.50;91.20
42715;DHT22;28351;51.480;5.706;2023-02-28T16:38:51;5.50;91.50
42715;DHT22;28351;51.480;5.706;2023-02-28T16:41:20;5.30;91.40
42715;DHT22;28351;51.480;5.706;2023-02-28T16:43:46;5.30;91.70
42715;DHT22;28351;51.480;5.706;2023-02-28T16:46:13;5.20;91.80
42715;DHT22;28351;51.480;5.706;2023-02-28T16:48:40;5.10;91.90
42715;DHT22;28351;51.480;5.706;2023-02-28T16:51:10;5.10;91.80
42715;DHT22;28351;51.480;5.706;2023-02-28T16:53:36;5.00;92.20
42715;DHT22;28351;51.480;5.706;2023-02-28T16:56:02;4.90;92.20
42715;DHT22;28351;51.480;5.706;2023-02-28T16:58:27;4.80;92.60
42715;DHT22;28351;51.480;5.706;2023-02-28T17:00:53;4.70;92.80
42715;DHT22;28351;51.480;5.706;2023-02-28T17:03:36;4.60;92.70
42715;DHT22;28351;51.480;5.706;2023-02-28T17:06:16;4.60;93.10
42715;DHT22;28351;51.480;5.706;2023-02-28T17:08:43;4.40;93.30
42715;DHT22;28351;51.480;5.706;2023-02-28T17:11:08;4.40;93.20
42715;DHT22;28351;51.480;5.706;2023-02-28T17:13:34;4.30;93.30
42715;DHT22;28351;51.480;5.706;2023-02-28T17:16:00;4.20;93.40
42715;DHT22;28351;51.480;5.706;2023-02-28T17:18:26;4.20;93.60
42715;DHT22;28351;51.480;5.706;2023-02-28T17:20:54;4.10;93.90
42715;DHT22;28351;51.480;5.706;2023-02-28T17:23:19;4.00;94.00
42715;DHT22;28351;51.480;5.706;2023-02-28T17:25:45;3.90;93.90
42715;DHT22;28351;51.480;5.706;2023-02-28T17:28:19;3.80;94.40
42715;DHT22;28351;51.480;5.706;2023-02-28T17:30:45;3.70;94.50
42715;DHT22;28351;51.480;5.706;2023-02-28T17:33:12;3.60;94.60
42715;DHT22;28351;51.480;5.706;2023-02-28T17:35:38;3.50;95.20
42715;DHT22;28351;51.480;5.706;2023-02-28T17:38:04;3.40;94.90
42715;DHT22;28351;51.480;5.706;2023-02-28T17:40:29;3.30;95.00
42715;DHT22;28351;51.480;5.706;2023-02-28T17:42:55;3.20;95.00
42715;DHT22;28351;51.480;5.706;2023-02-28T17:45:22;3.10;95.60
42715;DHT22;28351;51.480;5.706;2023-02-28T17:47:49;3.00;96.30
42715;DHT22;28351;51.480;5.706;2023-02-28T17:50:18;2.90;96.10
42715;DHT22;28351;51.480;5.706;2023-02-28T17:52:43;2.80;96.60
42715;DHT22;28351;51.480;5.706;2023-02-28T17:55:10;2.70;96.70
42715;DHT22;28351;51.480;5.706;2023-02-28T17:57:36;2.60;97.20
42715;DHT22;28351;51.480;5.706;2023-02-28T18:00:02;2.60;97.10
42715;DHT22;28351;51.480;5.706;2023-02-28T18:02:32;2.50;97.30
42715;DHT22;28351;51.480;5.706;2023-02-28T18:04:58;2.40;97.70
42715;DHT22;28351;51.480;5.706;2023-02-28T18:07:24;2.40;98.00
42715;DHT22;28351;51.480;5.706;2023-02-28T18:09:50;2.40;98.30
42715;DHT22;28351;51.480;5.706;2023-02-28T18:12:15;2.30;98.50
42715;DHT22;28351;51.480;5.706;2023-02-28T18:14:41;2.30;98.90
42715;DHT22;28351;51.480;5.706;2023-02-28T18:17:09;2.20;98.80
42715;DHT22;28351;51.480;5.706;2023-02-28T18:19:37;2.20;99.10
42715;DHT22;28351;51.480;5.706;2023-02-28T18:22:03;2.10;99.30
42715;DHT22;28351;51.480;5.706;2023-02-28T18:24:31;2.00;99.40
42715;DHT22;28351;51.480;5.706;2023-02-28T18:26:57;1.90;99.70
42715;DHT22;28351;51.480;5.706;2023-02-28T18:29:26;1.90;99.90
42715;DHT22;28351;51.480;5.706;2023-02-28T18:31:53;1.80;99.90
42715;DHT22;28351;51.480;5.706;2023-02-28T18:34:20;1.70;99.90
42715;DHT22;28351;51.480;5.706;2023-02-28T18:36:48;1.70;99.90
42715;DHT22;28351;51.480;5.706;2023-02-28T18:39:16;1.60;99.90
42715;DHT22;28351;51.480;5.706;2023-02-28T18:41:42;1.50;99.90
42715;DHT22;28351;51.480;5.706;2023-02-28T18:44:08;1.40;99.90
42715;DHT22;28351;51.480;5.706;2023-02-28T18:46:34;1.40;99.90
42715;DHT22;28351;51.480;5.706;2023-02-28T18:48:59;1.30;99.90
42715;DHT22;28351;51.480;5.706;2023-02-28T18:51:27;1.20;99.90
42715;DHT22;28351;51.480;5.706;2023-02-28T18:53:59;1.20;99.90
42715;DHT22;28351;51.480;5.706;2023-02-28T18:56:25;1.20;99.90
42715;DHT22;28351;51.480;5.706;2023-02-28T18:58:51;1.10;99.90
42715;DHT22;28351;51.480;5.706;2023-02-28T19:03:43;1.00;99.90
42715;DHT22;28351;51.480;5.706;2023-02-28T19:06:09;0.90;99.90
42715;DHT22;28351;51.480;5.706;2023-02-28T19:08:35;0.90;99.90
42715;DHT22;28351;51.480;5.706;2023-02-28T19:11:12;0.80;99.90
42715;DHT22;28351;51.480;5.706;2023-02-28T19:13:38;0.80;99.90
42715;DHT22;28351;51.480;5.706;2023-02-28T19:16:06;0.80;99.90